sensor_id;sensor_type;location;lat;lon;timestamp;P1;durP1;ratioP1;P2;durP2;ratioP2
6424;SDS011;12193;42.642;23.384;2023-02-01T00:00:57;6.83;;;4.60;;
6424;SDS011;12193;42.642;23.384;2023-02-01T00:03:30;6.67;;;4.30;;
6424;SDS011;12193;42.642;23.384;2023-02-01T00:05:59;6.83;;;4.53;;
6424;SDS011;12193;42.642;23.384;2023-02-01T00:08:29;8.37;;;4.47;;
6424;SDS011;12193;42.642;23.384;2023-02-01T00:10:58;7.80;;;4.67;;
6424;SDS011;12193;42.642;23.384;2023-02-01T00:13:29;7.13;;;4.37;;
6424;SDS011;12193;42.642;23.384;2023-02-01T00:16:02;7.30;;;4.60;;
6424;SDS011;12193;42.642;23.384;2023-02-01T00:18:35;7.63;;;4.17;;
6424;SDS011;12193;42.642;23.384;2023-02-01T00:21:05;6.40;;;4.40;;
6424;SDS011;12193;42.642;23.384;2023-02-01T00:23:34;7.43;;;4.03;;
6424;SDS011;12193;42.642;23.384;2023-02-01T00:26:06;6.63;;;4.47;;
6424;SDS011;12193;42.642;23.384;2023-02-01T00:28:39;7.73;;;4.37;;
6424;SDS011;12193;42.642;23.384;2023-02-01T00:31:09;9.30;;;4.60;;
6424;SDS011;12193;42.642;23.384;2023-02-01T00:33:41;7.57;;;4.07;;
6424;SDS011;12193;42.642;23.384;2023-02-01T00:36:10;7.13;;;4.27;;
6424;SDS011;12193;42.642;23.384;2023-02-01T00:38:39;6.67;;;4.60;;
6424;SDS011;12193;42.642;23.384;2023-02-01T00:41:10;6.53;;;4.50;;
6424;SDS011;12193;42.642;23.384;2023-02-01T00:43:40;7.53;;;4.73;;
6424;SDS011;12193;42.642;23.384;2023-02-01T00:46:10;8.20;;;4.07;;
6424;SDS011;12193;42.642;23.384;2023-02-01T00:48:44;6.20;;;3.97;;
6424;SDS011;12193;42.642;23.384;2023-02-01T00:51:15;8.43;;;4.30;;
6424;SDS011;12193;42.642;23.384;2023-02-01T00:53:46;6.10;;;4.03;;
6424;SDS011;12193;42.642;23.384;2023-02-01T00:56:16;5.93;;;4.37;;
6424;SDS011;12193;42.642;23.384;2023-02-01T00:58:46;6.30;;;3.70;;
6424;SDS011;12193;42.642;23.384;2023-02-01T01:01:17;5.90;;;4.03;;
6424;SDS011;12193;42.642;23.384;2023-02-01T01:03:51;5.50;;;3.83;;
6424;SDS011;12193;42.642;23.384;2023-02-01T04:08:45;3.43;;;2.30;;
6424;SDS011;12193;42.642;23.384;2023-02-01T04:11:15;3.60;;;2.30;;
6424;SDS011;12193;42.642;23.384;2023-02-01T04:13:45;5.37;;;2.27;;
6424;SDS011;12193;42.642;23.384;2023-02-01T04:16:14;6.60;;;2.47;;
6424;SDS011;12193;42.642;23.384;2023-02-01T04:18:44;3.70;;;2.53;;
6424;SDS011;12193;42.642;23.384;2023-02-01T04:21:13;6.97;;;2.60;;
6424;SDS011;12193;42.642;23.384;2023-02-01T04:23:45;3.70;;;2.47;;
6424;SDS011;12193;42.642;23.384;2023-02-01T04:26:14;3.83;;;2.40;;
6424;SDS011;12193;42.642;23.384;2023-02-01T04:28:45;4.70;;;2.60;;
6424;SDS011;12193;42.642;23.384;2023-02-01T04:31:14;3.43;;;2.50;;
6424;SDS011;12193;42.642;23.384;2023-02-01T04:33:50;5.10;;;2.70;;
6424;SDS011;12193;42.642;23.384;2023-02-01T04:36:20;4.50;;;2.90;;
6424;SDS011;12193;42.642;23.384;2023-02-01T04:38:52;4.10;;;2.57;;
6424;SDS011;12193;42.642;23.384;2023-02-01T04:41:22;5.57;;;2.83;;
6424;SDS011;12193;42.642;23.384;2023-02-01T04:43:51;10.03;;;2.87;;
6424;SDS011;12193;42.642;23.384;2023-02-01T04:46:21;5.47;;;2.90;;
6424;SDS011;12193;42.642;23.384;2023-02-01T04:48:50;4.67;;;3.00;;
6424;SDS011;12193;42.642;23.384;2023-02-01T04:51:20;4.50;;;3.10;;
6424;SDS011;12193;42.642;23.384;2023-02-01T04:53:49;6.90;;;3.40;;
6424;SDS011;12193;42.642;23.384;2023-02-01T04:56:21;3.70;;;2.80;;
6424;SDS011;12193;42.642;23.384;2023-02-01T04:58:50;4.80;;;3.43;;
6424;SDS011;12193;42.642;23.384;2023-02-01T05:01:20;5.00;;;3.27;;
6424;SDS011;12193;42.642;23.384;2023-02-01T05:03:50;6.13;;;3.70;;
6424;SDS011;12193;42.642;23.384;2023-02-01T05:06:20;5.57;;;3.60;;
6424;SDS011;12193;42.642;23.384;2023-02-01T05:08:49;6.10;;;3.40;;
6424;SDS011;12193;42.642;23.384;2023-02-01T05:11:21;8.33;;;3.80;;
6424;SDS011;12193;42.642;23.384;2023-02-01T05:14:03;6.80;;;3.47;;
6424;SDS011;12193;42.642;23.384;2023-02-01T05:16:33;8.37;;;3.23;;
6424;SDS011;12193;42.642;23.384;2023-02-01T05:19:02;6.70;;;3.80;;
6424;SDS011;12193;42.642;23.384;2023-02-01T05:21:32;7.90;;;3.40;;
6424;SDS011;12193;42.642;23.384;2023-02-01T05:24:01;6.87;;;3.93;;
6424;SDS011;12193;42.642;23.384;2023-02-01T05:26:48;5.87;;;3.97;;
6424;SDS011;12193;42.642;23.384;2023-02-01T05:29:17;6.43;;;3.80;;
6424;SDS011;12193;42.642;23.384;2023-02-01T05:31:47;7.10;;;4.30;;
6424;SDS011;12193;42.642;23.384;2023-02-01T05:34:16;5.57;;;3.60;;
6424;SDS011;12193;42.642;23.384;2023-02-01T05:36:46;6.73;;;3.70;;
6424;SDS011;12193;42.642;23.384;2023-02-01T05:39:15;8.60;;;3.63;;
6424;SDS011;12193;42.642;23.384;2023-02-01T05:41:44;6.23;;;4.00;;
6424;SDS011;12193;42.642;23.384;2023-02-01T05:44:16;7.20;;;4.10;;
6424;SDS011;12193;42.642;23.384;2023-02-01T05:46:46;10.17;;;4.63;;
6424;SDS011;12193;42.642;23.384;2023-02-01T05:49:15;12.37;;;4.10;;
6424;SDS011;12193;42.642;23.384;2023-02-01T05:51:44;7.63;;;3.50;;
6424;SDS011;12193;42.642;23.384;2023-02-01T05:54:14;8.23;;;4.33;;
6424;SDS011;12193;42.642;23.384;2023-02-01T05:56:43;5.07;;;3.90;;
6424;SDS011;12193;42.642;23.384;2023-02-01T05:59:12;6.50;;;3.83;;
6424;SDS011;12193;42.642;23.384;2023-02-01T06:01:44;8.03;;;4.03;;
6424;SDS011;12193;42.642;23.384;2023-02-01T06:04:14;9.40;;;4.10;;
6424;SDS011;12193;42.642;23.384;2023-02-01T06:06:43;8.17;;;4.30;;
6424;SDS011;12193;42.642;23.384;2023-02-01T06:09:13;6.03;;;3.40;;
6424;SDS011;12193;42.642;23.384;2023-02-01T06:11:42;7.53;;;3.90;;
6424;SDS011;12193;42.642;23.384;2023-02-01T06:14:11;7.83;;;3.97;;
6424;SDS011;12193;42.642;23.384;2023-02-01T06:16:41;7.60;;;3.63;;
6424;SDS011;12193;42.642;23.384;2023-02-01T06:19:13;7.17;;;3.60;;
6424;SDS011;12193;42.642;23.384;2023-02-01T06:21:42;5.47;;;3.40;;
6424;SDS011;12193;42.642;23.384;2023-02-01T06:24:12;7.27;;;3.70;;
6424;SDS011;12193;42.642;23.384;2023-02-01T06:26:42;6.13;;;3.30;;
6424;SDS011;12193;42.642;23.384;2023-02-01T06:29:12;4.50;;;3.13;;
6424;SDS011;12193;42.642;23.384;2023-02-01T06:31:44;8.03;;;3.33;;
6424;SDS011;12193;42.642;23.384;2023-02-01T06:34:13;4.27;;;2.80;;
6424;SDS011;12193;42.642;23.384;2023-02-01T06:36:43;6.93;;;3.17;;
6424;SDS011;12193;42.642;23.384;2023-02-01T06:39:12;6.03;;;2.83;;
6424;SDS011;12193;42.642;23.384;2023-02-01T06:41:42;5.30;;;2.90;;
6424;SDS011;12193;42.642;23.384;2023-02-01T06:44:11;5.00;;;2.93;;
6424;SDS011;12193;42.642;23.384;2023-02-01T06:46:40;6.73;;;2.90;;
6424;SDS011;12193;42.642;23.384;2023-02-01T06:49:12;6.23;;;2.93;;
6424;SDS011;12193;42.642;23.384;2023-02-01T06:51:42;6.53;;;3.20;;
6424;SDS011;12193;42.642;23.384;2023-02-01T06:54:11;5.53;;;2.50;;
6424;SDS011;12193;42.642;23.384;2023-02-01T06:56:40;5.87;;;2.70;;
6424;SDS011;12193;42.642;23.384;2023-02-01T06:59:10;4.93;;;2.57;;
6424;SDS011;12193;42.642;23.384;2023-02-01T07:01:40;8.57;;;2.70;;
6424;SDS011;12193;42.642;23.384;2023-02-01T07:04:12;7.17;;;3.13;;
6424;SDS011;12193;42.642;23.384;2023-02-01T07:06:41;7.00;;;2.57;;
6424;SDS011;12193;42.642;23.384;2023-02-01T07:09:11;6.37;;;2.90;;
6424;SDS011;12193;42.642;23.384;2023-02-01T07:11:40;3.87;;;2.67;;
6424;SDS011;12193;42.642;23.384;2023-02-01T07:14:10;4.77;;;2.50;;
6424;SDS011;12193;42.642;23.384;2023-02-01T07:16:39;3.33;;;2.30;;
6424;SDS011;12193;42.642;23.384;2023-02-01T07:19:09;3.73;;;2.30;;
6424;SDS011;12193;42.642;23.384;2023-02-01T07:21:41;4.53;;;2.33;;
6424;SDS011;12193;42.642;23.384;2023-02-01T07:24:10;5.13;;;2.90;;
6424;SDS011;12193;42.642;23.384;2023-02-01T07:26:40;4.63;;;2.87;;
6424;SDS011;12193;42.642;23.384;2023-02-01T07:29:09;4.77;;;2.67;;
6424;SDS011;12193;42.642;23.384;2023-02-01T07:31:39;4.60;;;2.57;;
6424;SDS011;12193;42.642;23.384;2023-02-01T07:34:08;6.10;;;2.60;;
6424;SDS011;12193;42.642;23.384;2023-02-01T07:36:40;3.77;;;2.50;;
6424;SDS011;12193;42.642;23.384;2023-02-01T07:39:09;7.47;;;2.70;;
6424;SDS011;12193;42.642;23.384;2023-02-01T07:41:39;5.20;;;2.70;;
6424;SDS011;12193;42.642;23.384;2023-02-01T07:44:08;6.10;;;3.00;;
6424;SDS011;12193;42.642;23.384;2023-02-01T07:46:38;5.63;;;2.37;;
6424;SDS011;12193;42.642;23.384;2023-02-01T07:49:09;3.20;;;2.20;;
6424;SDS011;12193;42.642;23.384;2023-02-01T07:51:42;6.00;;;2.80;;
6424;SDS011;12193;42.642;23.384;2023-02-01T07:54:12;7.17;;;2.70;;
6424;SDS011;12193;42.642;23.384;2023-02-01T07:56:41;5.20;;;2.47;;
6424;SDS011;12193;42.642;23.384;2023-02-01T07:59:10;7.17;;;2.80;;
6424;SDS011;12193;42.642;23.384;2023-02-01T08:01:40;6.10;;;2.70;;
6424;SDS011;12193;42.642;23.384;2023-02-01T08:04:11;3.80;;;2.40;;
6424;SDS011;12193;42.642;23.384;2023-02-01T08:06:43;5.90;;;2.40;;
6424;SDS011;12193;42.642;23.384;2023-02-01T08:09:13;5.27;;;2.50;;
6424;SDS011;12193;42.642;23.384;2023-02-01T08:11:42;5.10;;;2.37;;
6424;SDS011;12193;42.642;23.384;2023-02-01T08:14:12;4.53;;;2.67;;
6424;SDS011;12193;42.642;23.384;2023-02-01T08:16:41;3.87;;;2.60;;
6424;SDS011;12193;42.642;23.384;2023-02-01T08:19:10;5.97;;;2.57;;
6424;SDS011;12193;42.642;23.384;2023-02-01T08:21:39;5.30;;;2.97;;
6424;SDS011;12193;42.642;23.384;2023-02-01T08:24:11;5.97;;;2.80;;
6424;SDS011;12193;42.642;23.384;2023-02-01T08:26:41;6.17;;;2.53;;
6424;SDS011;12193;42.642;23.384;2023-02-01T08:29:10;5.83;;;2.33;;
6424;SDS011;12193;42.642;23.384;2023-02-01T08:31:40;4.73;;;2.00;;
6424;SDS011;12193;42.642;23.384;2023-02-01T08:34:09;6.90;;;2.60;;
6424;SDS011;12193;42.642;23.384;2023-02-01T08:36:39;6.93;;;2.30;;
6424;SDS011;12193;42.642;23.384;2023-02-01T08:39:11;5.40;;;2.50;;
6424;SDS011;12193;42.642;23.384;2023-02-01T08:41:40;3.33;;;2.23;;
6424;SDS011;12193;42.642;23.384;2023-02-01T08:44:31;4.30;;;2.17;;
6424;SDS011;12193;42.642;23.384;2023-02-01T08:47:00;4.87;;;2.27;;
6424;SDS011;12193;42.642;23.384;2023-02-01T08:49:30;5.30;;;2.40;;
6424;SDS011;12193;42.642;23.384;2023-02-01T08:51:59;3.90;;;2.23;;
6424;SDS011;12193;42.642;23.384;2023-02-01T08:54:31;8.67;;;2.73;;
6424;SDS011;12193;42.642;23.384;2023-02-01T08:57:01;6.33;;;2.47;;
6424;SDS011;12193;42.642;23.384;2023-02-01T08:59:30;6.30;;;2.77;;
6424;SDS011;12193;42.642;23.384;2023-02-01T09:02:00;7.13;;;2.60;;
6424;SDS011;12193;42.642;23.384;2023-02-01T09:04:29;5.03;;;2.50;;
6424;SDS011;12193;42.642;23.384;2023-02-01T09:06:58;4.10;;;2.00;;
6424;SDS011;12193;42.642;23.384;2023-02-01T09:09:28;4.17;;;2.47;;
6424;SDS011;12193;42.642;23.384;2023-02-01T09:12:00;4.97;;;2.10;;
6424;SDS011;12193;42.642;23.384;2023-02-01T09:14:30;4.43;;;2.20;;
6424;SDS011;12193;42.642;23.384;2023-02-01T09:16:59;5.80;;;2.57;;
6424;SDS011;12193;42.642;23.384;2023-02-01T09:19:29;4.70;;;2.73;;
6424;SDS011;12193;42.642;23.384;2023-02-01T09:21:58;4.77;;;2.03;;
6424;SDS011;12193;42.642;23.384;2023-02-01T09:24:28;3.17;;;1.97;;
6424;SDS011;12193;42.642;23.384;2023-02-01T09:27:00;4.43;;;2.17;;
6424;SDS011;12193;42.642;23.384;2023-02-01T09:29:29;5.00;;;2.13;;
6424;SDS011;12193;42.642;23.384;2023-02-01T09:31:58;3.70;;;2.10;;
6424;SDS011;12193;42.642;23.384;2023-02-01T09:34:28;4.30;;;2.37;;
6424;SDS011;12193;42.642;23.384;2023-02-01T09:36:57;5.50;;;2.50;;
6424;SDS011;12193;42.642;23.384;2023-02-01T09:39:26;4.63;;;2.50;;
6424;SDS011;12193;42.642;23.384;2023-02-01T09:41:59;6.30;;;2.20;;
6424;SDS011;12193;42.642;23.384;2023-02-01T09:44:43;4.97;;;2.00;;
6424;SDS011;12193;42.642;23.384;2023-02-01T09:47:22;4.70;;;2.37;;
6424;SDS011;12193;42.642;23.384;2023-02-01T09:49:55;3.20;;;1.90;;
6424;SDS011;12193;42.642;23.384;2023-02-01T09:52:31;6.57;;;2.27;;
6424;SDS011;12193;42.642;23.384;2023-02-01T09:55:06;4.60;;;2.20;;
6424;SDS011;12193;42.642;23.384;2023-02-01T09:57:45;4.93;;;2.30;;
6424;SDS011;12193;42.642;23.384;2023-02-01T10:00:23;4.60;;;2.33;;
6424;SDS011;12193;42.642;23.384;2023-02-01T10:02:56;4.60;;;2.30;;
6424;SDS011;12193;42.642;23.384;2023-02-01T10:05:35;3.00;;;2.30;;
6424;SDS011;12193;42.642;23.384;2023-02-01T10:08:18;2.97;;;1.90;;
6424;SDS011;12193;42.642;23.384;2023-02-01T10:10:55;5.47;;;1.90;;
6424;SDS011;12193;42.642;23.384;2023-02-01T10:13:38;4.77;;;2.17;;
6424;SDS011;12193;42.642;23.384;2023-02-01T10:16:23;3.40;;;1.93;;
6424;SDS011;12193;42.642;23.384;2023-02-01T10:19:10;2.50;;;1.67;;
6424;SDS011;12193;42.642;23.384;2023-02-01T10:21:54;3.03;;;2.03;;
6424;SDS011;12193;42.642;23.384;2023-02-01T10:24:38;3.30;;;2.13;;
6424;SDS011;12193;42.642;23.384;2023-02-01T10:27:14;3.73;;;2.10;;
6424;SDS011;12193;42.642;23.384;2023-02-01T10:29:51;4.67;;;2.00;;
6424;SDS011;12193;42.642;23.384;2023-02-01T10:32:28;4.70;;;1.80;;
6424;SDS011;12193;42.642;23.384;2023-02-01T10:35:01;3.90;;;2.40;;
6424;SDS011;12193;42.642;23.384;2023-02-01T10:37:37;3.57;;;2.07;;
6424;SDS011;12193;42.642;23.384;2023-02-01T10:40:13;4.63;;;2.27;;
6424;SDS011;12193;42.642;23.384;2023-02-01T10:42:47;6.10;;;2.27;;
6424;SDS011;12193;42.642;23.384;2023-02-01T10:45:21;4.00;;;2.80;;
6424;SDS011;12193;42.642;23.384;2023-02-01T10:47:53;5.13;;;2.20;;
6424;SDS011;12193;42.642;23.384;2023-02-01T10:50:29;3.33;;;2.00;;
6424;SDS011;12193;42.642;23.384;2023-02-01T10:53:05;3.27;;;2.20;;
6424;SDS011;12193;42.642;23.384;2023-02-01T10:55:40;4.00;;;1.77;;
6424;SDS011;12193;42.642;23.384;2023-02-01T10:58:15;3.60;;;2.00;;
6424;SDS011;12193;42.642;23.384;2023-02-01T11:00:52;4.43;;;2.00;;
6424;SDS011;12193;42.642;23.384;2023-02-01T11:06:13;3.27;;;2.17;;
6424;SDS011;12193;42.642;23.384;2023-02-01T11:08:53;3.57;;;2.00;;
6424;SDS011;12193;42.642;23.384;2023-02-01T11:11:24;7.10;;;2.20;;
6424;SDS011;12193;42.642;23.384;2023-02-01T11:13:56;3.73;;;1.83;;
6424;SDS011;12193;42.642;23.384;2023-02-01T11:16:33;3.53;;;1.97;;
6424;SDS011;12193;42.642;23.384;2023-02-01T11:19:04;3.50;;;1.93;;
6424;SDS011;12193;42.642;23.384;2023-02-01T11:21:34;5.47;;;2.60;;
6424;SDS011;12193;42.642;23.384;2023-02-01T11:24:03;7.27;;;2.83;;
6424;SDS011;12193;42.642;23.384;2023-02-01T11:26:35;7.13;;;2.77;;
6424;SDS011;12193;42.642;23.384;2023-02-01T11:29:10;11.97;;;3.87;;
6424;SDS011;12193;42.642;23.384;2023-02-01T11:31:46;9.73;;;2.60;;
6424;SDS011;12193;42.642;23.384;2023-02-01T11:34:15;3.20;;;1.77;;
6424;SDS011;12193;42.642;23.384;2023-02-01T11:36:47;7.63;;;2.10;;
6424;SDS011;12193;42.642;23.384;2023-02-01T11:39:24;3.93;;;2.33;;
6424;SDS011;12193;42.642;23.384;2023-02-01T11:41:56;3.50;;;2.10;;
6424;SDS011;12193;42.642;23.384;2023-02-01T11:44:31;4.90;;;2.20;;
6424;SDS011;12193;42.642;23.384;2023-02-01T11:49:54;2.97;;;1.87;;
6424;SDS011;12193;42.642;23.384;2023-02-01T11:55:32;3.97;;;2.13;;
6424;SDS011;12193;42.642;23.384;2023-02-01T11:58:20;3.30;;;1.80;;
6424;SDS011;12193;42.642;23.384;2023-02-01T12:01:02;1.93;;;1.60;;
6424;SDS011;12193;42.642;23.384;2023-02-01T12:03:49;3.40;;;1.67;;
6424;SDS011;12193;42.642;23.384;2023-02-01T12:06:42;2.73;;;1.63;;
6424;SDS011;12193;42.642;23.384;2023-02-01T12:09:23;3.07;;;1.93;;
6424;SDS011;12193;42.642;23.384;2023-02-01T12:12:03;3.87;;;1.60;;
6424;SDS011;12193;42.642;23.384;2023-02-01T12:14:41;3.33;;;1.40;;
6424;SDS011;12193;42.642;23.384;2023-02-01T12:17:41;2.83;;;1.53;;
6424;SDS011;12193;42.642;23.384;2023-02-01T12:20:38;2.10;;;1.53;;
6424;SDS011;12193;42.642;23.384;2023-02-01T12:23:41;3.10;;;1.60;;
6424;SDS011;12193;42.642;23.384;2023-02-01T12:26:26;2.50;;;1.80;;
6424;SDS011;12193;42.642;23.384;2023-02-01T12:29:15;3.63;;;1.60;;
6424;SDS011;12193;42.642;23.384;2023-02-01T12:32:09;3.03;;;1.50;;
6424;SDS011;12193;42.642;23.384;2023-02-01T12:34:53;2.07;;;1.63;;
6424;SDS011;12193;42.642;23.384;2023-02-01T12:37:48;2.13;;;1.70;;
6424;SDS011;12193;42.642;23.384;2023-02-01T12:40:29;3.50;;;1.80;;
6424;SDS011;12193;42.642;23.384;2023-02-01T12:43:12;3.37;;;1.60;;
6424;SDS011;12193;42.642;23.384;2023-02-01T12:45:49;3.10;;;1.60;;
6424;SDS011;12193;42.642;23.384;2023-02-01T12:48:28;2.43;;;1.80;;
6424;SDS011;12193;42.642;23.384;2023-02-01T12:51:02;6.73;;;2.00;;
6424;SDS011;12193;42.642;23.384;2023-02-01T12:53:42;3.20;;;1.80;;
6424;SDS011;12193;42.642;23.384;2023-02-01T12:56:16;4.47;;;1.93;;
6424;SDS011;12193;42.642;23.384;2023-02-01T12:58:53;4.80;;;2.10;;
6424;SDS011;12193;42.642;23.384;2023-02-01T13:01:27;4.23;;;2.03;;
6424;SDS011;12193;42.642;23.384;2023-02-01T13:04:05;3.80;;;1.90;;
6424;SDS011;12193;42.642;23.384;2023-02-01T13:06:41;3.83;;;2.10;;
6424;SDS011;12193;42.642;23.384;2023-02-01T13:09:18;4.13;;;1.80;;
6424;SDS011;12193;42.642;23.384;2023-02-01T13:11:53;3.53;;;2.13;;
6424;SDS011;12193;42.642;23.384;2023-02-01T13:14:28;4.27;;;2.20;;
6424;SDS011;12193;42.642;23.384;2023-02-01T13:17:03;3.53;;;1.83;;
6424;SDS011;12193;42.642;23.384;2023-02-01T13:19:37;5.00;;;1.77;;
6424;SDS011;12193;42.642;23.384;2023-02-01T13:22:12;4.93;;;2.20;;
6424;SDS011;12193;42.642;23.384;2023-02-01T13:24:49;2.17;;;1.63;;
6424;SDS011;12193;42.642;23.384;2023-02-01T13:27:22;6.00;;;2.00;;
6424;SDS011;12193;42.642;23.384;2023-02-01T13:29:57;4.47;;;1.97;;
6424;SDS011;12193;42.642;23.384;2023-02-01T13:35:24;2.83;;;1.50;;
6424;SDS011;12193;42.642;23.384;2023-02-01T13:38:08;2.07;;;1.50;;
6424;SDS011;12193;42.642;23.384;2023-02-01T13:40:56;3.43;;;1.90;;
6424;SDS011;12193;42.642;23.384;2023-02-01T13:43:38;2.07;;;1.50;;
6424;SDS011;12193;42.642;23.384;2023-02-01T13:46:14;2.93;;;1.70;;
6424;SDS011;12193;42.642;23.384;2023-02-01T13:48:45;5.97;;;1.63;;
6424;SDS011;12193;42.642;23.384;2023-02-01T13:51:18;2.20;;;1.50;;
6424;SDS011;12193;42.642;23.384;2023-02-01T13:54:01;2.17;;;1.73;;
6424;SDS011;12193;42.642;23.384;2023-02-01T14:08:13;3.00;;;1.80;;
6424;SDS011;12193;42.642;23.384;2023-02-01T14:10:51;2.10;;;1.60;;
6424;SDS011;12193;42.642;23.384;2023-02-01T14:13:27;4.07;;;1.90;;
6424;SDS011;12193;42.642;23.384;2023-02-01T14:16:11;2.07;;;1.70;;
6424;SDS011;12193;42.642;23.384;2023-02-01T14:19:00;2.73;;;1.73;;
6424;SDS011;12193;42.642;23.384;2023-02-01T14:21:30;4.20;;;2.30;;
6424;SDS011;12193;42.642;23.384;2023-02-01T14:24:04;4.83;;;1.93;;
6424;SDS011;12193;42.642;23.384;2023-02-01T14:26:50;3.27;;;2.10;;
6424;SDS011;12193;42.642;23.384;2023-02-01T14:29:29;3.17;;;1.87;;
6424;SDS011;12193;42.642;23.384;2023-02-01T14:32:03;2.20;;;1.80;;
6424;SDS011;12193;42.642;23.384;2023-02-01T14:34:40;3.53;;;2.13;;
6424;SDS011;12193;42.642;23.384;2023-02-01T14:37:24;3.33;;;1.70;;
6424;SDS011;12193;42.642;23.384;2023-02-01T14:39:57;5.67;;;2.00;;
6424;SDS011;12193;42.642;23.384;2023-02-01T14:42:32;7.30;;;2.10;;
6424;SDS011;12193;42.642;23.384;2023-02-01T14:51:14;4.33;;;2.23;;
6424;SDS011;12193;42.642;23.384;2023-02-01T14:53:46;2.20;;;1.60;;
6424;SDS011;12193;42.642;23.384;2023-02-01T14:56:17;2.47;;;1.70;;
6424;SDS011;12193;42.642;23.384;2023-02-01T14:58:50;4.33;;;2.20;;
6424;SDS011;12193;42.642;23.384;2023-02-01T15:01:28;3.00;;;1.87;;
6424;SDS011;12193;42.642;23.384;2023-02-01T15:04:01;6.13;;;2.30;;
6424;SDS011;12193;42.642;23.384;2023-02-01T15:06:33;2.90;;;2.00;;
6424;SDS011;12193;42.642;23.384;2023-02-01T15:09:10;4.80;;;2.30;;
6424;SDS011;12193;42.642;23.384;2023-02-01T15:11:59;3.17;;;1.90;;
6424;SDS011;12193;42.642;23.384;2023-02-01T15:14:32;4.10;;;2.33;;
6424;SDS011;12193;42.642;23.384;2023-02-01T15:17:15;4.53;;;2.40;;
6424;SDS011;12193;42.642;23.384;2023-02-01T15:19:53;2.77;;;1.97;;
6424;SDS011;12193;42.642;23.384;2023-02-01T15:22:24;4.97;;;2.10;;
6424;SDS011;12193;42.642;23.384;2023-02-01T15:24:54;3.80;;;2.07;;
6424;SDS011;12193;42.642;23.384;2023-02-01T15:27:25;3.63;;;2.10;;
6424;SDS011;12193;42.642;23.384;2023-02-01T15:30:04;3.93;;;2.27;;
6424;SDS011;12193;42.642;23.384;2023-02-01T15:32:37;6.23;;;2.40;;
6424;SDS011;12193;42.642;23.384;2023-02-01T15:41:08;2.40;;;1.60;;
6424;SDS011;12193;42.642;23.384;2023-02-01T15:43:40;3.77;;;1.97;;
6424;SDS011;12193;42.642;23.384;2023-02-01T15:46:12;3.70;;;2.10;;
6424;SDS011;12193;42.642;23.384;2023-02-01T15:48:48;2.37;;;1.80;;
6424;SDS011;12193;42.642;23.384;2023-02-01T15:51:20;5.17;;;2.30;;
6424;SDS011;12193;42.642;23.384;2023-02-01T15:53:53;2.90;;;1.90;;
6424;SDS011;12193;42.642;23.384;2023-02-01T15:56:24;3.47;;;1.97;;
6424;SDS011;12193;42.642;23.384;2023-02-01T15:58:57;2.63;;;1.63;;
6424;SDS011;12193;42.642;23.384;2023-02-01T16:01:29;2.87;;;1.60;;
6424;SDS011;12193;42.642;23.384;2023-02-01T16:04:10;4.53;;;2.17;;
6424;SDS011;12193;42.642;23.384;2023-02-01T16:06:46;2.90;;;2.00;;
6424;SDS011;12193;42.642;23.384;2023-02-01T16:09:17;3.87;;;1.87;;
6424;SDS011;12193;42.642;23.384;2023-02-01T16:11:49;2.80;;;1.80;;
6424;SDS011;12193;42.642;23.384;2023-02-01T16:14:23;3.13;;;1.90;;
6424;SDS011;12193;42.642;23.384;2023-02-01T16:16:53;6.30;;;2.13;;
6424;SDS011;12193;42.642;23.384;2023-02-01T16:19:26;3.33;;;2.00;;
6424;SDS011;12193;42.642;23.384;2023-02-01T16:21:56;3.17;;;1.97;;
6424;SDS011;12193;42.642;23.384;2023-02-01T16:24:25;5.73;;;2.00;;
6424;SDS011;12193;42.642;23.384;2023-02-01T16:26:55;2.73;;;1.90;;
6424;SDS011;12193;42.642;23.384;2023-02-01T16:29:24;4.20;;;2.20;;
6424;SDS011;12193;42.642;23.384;2023-02-01T16:31:53;4.47;;;2.20;;
6424;SDS011;12193;42.642;23.384;2023-02-01T16:34:23;3.27;;;2.10;;
6424;SDS011;12193;42.642;23.384;2023-02-01T16:36:55;4.20;;;1.97;;
6424;SDS011;12193;42.642;23.384;2023-02-01T16:39:26;5.33;;;2.23;;
6424;SDS011;12193;42.642;23.384;2023-02-01T16:41:59;2.47;;;1.83;;
6424;SDS011;12193;42.642;23.384;2023-02-01T16:44:28;4.03;;;1.97;;
6424;SDS011;12193;42.642;23.384;2023-02-01T16:46:57;5.57;;;2.00;;
6424;SDS011;12193;42.642;23.384;2023-02-01T16:49:29;4.00;;;2.40;;
6424;SDS011;12193;42.642;23.384;2023-02-01T16:51:59;2.60;;;1.90;;
6424;SDS011;12193;42.642;23.384;2023-02-01T16:54:28;3.33;;;2.00;;
6424;SDS011;12193;42.642;23.384;2023-02-01T16:56:57;4.37;;;2.10;;
6424;SDS011;12193;42.642;23.384;2023-02-01T16:59:26;3.20;;;1.83;;
6424;SDS011;12193;42.642;23.384;2023-02-01T17:01:55;3.63;;;2.00;;
6424;SDS011;12193;42.642;23.384;2023-02-01T17:04:25;3.80;;;2.07;;
6424;SDS011;12193;42.642;23.384;2023-02-01T17:06:57;5.33;;;2.23;;
6424;SDS011;12193;42.642;23.384;2023-02-01T17:09:28;4.30;;;2.53;;
6424;SDS011;12193;42.642;23.384;2023-02-01T17:11:57;5.27;;;2.20;;
6424;SDS011;12193;42.642;23.384;2023-02-01T17:14:27;4.73;;;2.03;;
6424;SDS011;12193;42.642;23.384;2023-02-01T17:16:59;4.77;;;2.47;;
6424;SDS011;12193;42.642;23.384;2023-02-01T17:19:29;6.80;;;2.97;;
6424;SDS011;12193;42.642;23.384;2023-02-01T17:22:01;7.30;;;3.70;;
6424;SDS011;12193;42.642;23.384;2023-02-01T17:24:30;5.43;;;2.70;;
6424;SDS011;12193;42.642;23.384;2023-02-01T17:27:00;3.93;;;2.00;;
6424;SDS011;12193;42.642;23.384;2023-02-01T17:29:29;4.63;;;2.17;;
6424;SDS011;12193;42.642;23.384;2023-02-01T17:31:59;7.33;;;2.30;;
6424;SDS011;12193;42.642;23.384;2023-02-01T17:34:28;4.17;;;2.47;;
6424;SDS011;12193;42.642;23.384;2023-02-01T17:36:57;6.27;;;2.50;;
6424;SDS011;12193;42.642;23.384;2023-02-01T17:39:29;6.47;;;2.50;;
6424;SDS011;12193;42.642;23.384;2023-02-01T17:42:11;4.50;;;2.43;;
6424;SDS011;12193;42.642;23.384;2023-02-01T17:44:40;6.13;;;2.30;;
6424;SDS011;12193;42.642;23.384;2023-02-01T17:47:09;3.60;;;2.23;;
6424;SDS011;12193;42.642;23.384;2023-02-01T17:49:39;5.03;;;2.57;;
6424;SDS011;12193;42.642;23.384;2023-02-01T17:52:08;3.60;;;2.20;;
6424;SDS011;12193;42.642;23.384;2023-02-01T17:54:47;5.60;;;2.43;;
6424;SDS011;12193;42.642;23.384;2023-02-01T17:57:18;3.97;;;2.00;;
6424;SDS011;12193;42.642;23.384;2023-02-01T17:59:48;4.07;;;2.37;;
6424;SDS011;12193;42.642;23.384;2023-02-01T18:02:18;4.40;;;2.17;;
6424;SDS011;12193;42.642;23.384;2023-02-01T18:04:48;3.40;;;2.00;;
6424;SDS011;12193;42.642;23.384;2023-02-01T18:07:18;2.67;;;2.00;;
6424;SDS011;12193;42.642;23.384;2023-02-01T18:09:51;2.97;;;1.90;;
6424;SDS011;12193;42.642;23.384;2023-02-01T18:12:21;3.97;;;2.07;;
6424;SDS011;12193;42.642;23.384;2023-02-01T18:14:53;3.33;;;2.27;;
6424;SDS011;12193;42.642;23.384;2023-02-01T18:17:23;3.87;;;1.90;;
6424;SDS011;12193;42.642;23.384;2023-02-01T18:19:52;2.77;;;1.93;;
6424;SDS011;12193;42.642;23.384;2023-02-01T18:22:22;4.67;;;2.10;;
6424;SDS011;12193;42.642;23.384;2023-02-01T18:24:55;4.40;;;2.30;;
6424;SDS011;12193;42.642;23.384;2023-02-01T18:27:24;5.77;;;1.87;;
6424;SDS011;12193;42.642;23.384;2023-02-01T18:29:54;5.80;;;2.20;;
6424;SDS011;12193;42.642;23.384;2023-02-01T18:32:23;4.77;;;2.30;;
6424;SDS011;12193;42.642;23.384;2023-02-01T18:34:53;4.10;;;2.20;;
6424;SDS011;12193;42.642;23.384;2023-02-01T18:37:23;8.67;;;4.27;;
6424;SDS011;12193;42.642;23.384;2023-02-01T18:39:54;13.10;;;6.10;;
6424;SDS011;12193;42.642;23.384;2023-02-01T18:42:24;15.10;;;6.77;;
6424;SDS011;12193;42.642;23.384;2023-02-01T18:44:53;15.83;;;7.20;;
6424;SDS011;12193;42.642;23.384;2023-02-01T18:47:22;18.17;;;7.90;;
6424;SDS011;12193;42.642;23.384;2023-02-01T18:49:51;17.00;;;8.03;;
6424;SDS011;12193;42.642;23.384;2023-02-01T18:52:20;19.03;;;8.57;;
6424;SDS011;12193;42.642;23.384;2023-02-01T18:54:50;17.60;;;8.33;;
6424;SDS011;12193;42.642;23.384;2023-02-01T18:57:22;19.93;;;9.27;;
6424;SDS011;12193;42.642;23.384;2023-02-01T18:59:51;24.93;;;8.83;;